sensor_id;sensor_type;location;lat;lon;timestamp;P1;durP1;ratioP1;P2;durP2;ratioP2
32451;SDS011;45528;52.102;5.242;2023-04-03T00:03:11;4.1;;;1.4;;
32451;SDS011;45528;52.102;5.242;2023-04-03T00:04:47;2.31;;;1.2;;
32451;SDS011;45528;52.102;5.242;2023-04-03T00:06:24;3.0;;;1.4;;
32451;SDS011;45528;52.102;5.242;2023-04-03T00:09:38;3.4;;;1.4;;
32451;SDS011;45528;52.102;5.242;2023-04-03T00:11:15;3.0;;;1.4;;
32451;SDS011;45528;52.102;5.242;2023-04-03T00:12:51;4.3;;;1.4;;
32451;SDS011;45528;52.102;5.242;2023-04-03T00:16:05;4.3;;;1.4;;
32451;SDS011;45528;52.102;5.242;2023-04-03T00:17:43;4.7;;;1.3;;
32451;SDS011;45528;52.102;5.242;2023-04-03T00:19:19;3.6;;;1.4;;
32451;SDS011;45528;52.102;5.242;2023-04-03T00:20:56;3.4;;;1.6;;
32451;SDS011;45528;52.102;5.242;2023-04-03T00:24:10;5.5;;;1.6;;
32451;SDS011;45528;52.102;5.242;2023-04-03T00:25:46;4.2;;;1.4;;
32451;SDS011;45528;52.102;5.242;2023-04-03T00:27:23;4.61;;;1.4;;
32451;SDS011;45528;52.102;5.242;2023-04-03T00:30:35;4.5;;;1.4;;
32451;SDS011;45528;52.102;5.242;2023-04-03T00:32:12;4.8;;;1.5;;
32451;SDS011;45528;52.102;5.242;2023-04-03T00:33:49;4.8;;;1.5;;
32451;SDS011;45528;52.102;5.242;2023-04-03T00:37:04;4.2;;;1.2;;
32451;SDS011;45528;52.102;5.242;2023-04-03T00:38:40;5.2;;;1.6;;
32451;SDS011;45528;52.102;5.242;2023-04-03T00:40:17;4.0;;;1.4;;
32451;SDS011;45528;52.102;5.242;2023-04-03T00:41:54;2.5;;;1.2;;
32451;SDS011;45528;52.102;5.242;2023-04-03T00:45:25;3.3;;;1.5;;
32451;SDS011;45528;52.102;5.242;2023-04-03T00:47:08;3.8;;;1.5;;
32451;SDS011;45528;52.102;5.242;2023-04-03T00:48:47;3.3;;;1.4;;
32451;SDS011;45528;52.102;5.242;2023-04-03T00:50:24;3.7;;;1.4;;
32451;SDS011;45528;52.102;5.242;2023-04-03T00:53:46;2.31;;;1.3;;
32451;SDS011;45528;52.102;5.242;2023-04-03T00:55:25;2.4;;;1.11;;
32451;SDS011;45528;52.102;5.242;2023-04-03T00:57:01;4.0;;;1.4;;
32451;SDS011;45528;52.102;5.242;2023-04-03T00:58:43;3.3;;;1.4;;
32451;SDS011;45528;52.102;5.242;2023-04-03T01:02:02;2.31;;;1.0;;
32451;SDS011;45528;52.102;5.242;2023-04-03T01:03:38;4.5;;;1.4;;
32451;SDS011;45528;52.102;5.242;2023-04-03T01:05:14;1.7;;;1.11;;
32451;SDS011;45528;52.102;5.242;2023-04-03T01:08:31;3.9;;;1.4;;
32451;SDS011;45528;52.102;5.242;2023-04-03T01:10:09;3.5;;;1.2;;
32451;SDS011;45528;52.102;5.242;2023-04-03T01:11:49;2.5;;;1.11;;
32451;SDS011;45528;52.102;5.242;2023-04-03T01:13:26;2.7;;;1.3;;
32451;SDS011;45528;52.102;5.242;2023-04-03T01:16:51;2.31;;;1.3;;
32451;SDS011;45528;52.102;5.242;2023-04-03T01:18:29;2.5;;;1.11;;
32451;SDS011;45528;52.102;5.242;2023-04-03T01:20:23;3.1;;;1.2;;
32451;SDS011;45528;52.102;5.242;2023-04-03T01:23:56;3.3;;;1.11;;
32451;SDS011;45528;52.102;5.242;2023-04-03T01:27:24;3.2;;;1.3;;
32451;SDS011;45528;52.102;5.242;2023-04-03T01:29:01;2.5;;;1.3;;
32451;SDS011;45528;52.102;5.242;2023-04-03T01:30:39;3.3;;;1.4;;
32451;SDS011;45528;52.102;5.242;2023-04-03T01:32:22;4.5;;;1.4;;
32451;SDS011;45528;52.102;5.242;2023-04-03T01:35:37;3.6;;;1.2;;
32451;SDS011;45528;52.102;5.242;2023-04-03T01:37:14;3.2;;;1.3;;
32451;SDS011;45528;52.102;5.242;2023-04-03T01:38:50;2.9;;;1.3;;
32451;SDS011;45528;52.102;5.242;2023-04-03T01:40:27;5.0;;;1.4;;
32451;SDS011;45528;52.102;5.242;2023-04-03T01:43:42;4.3;;;1.5;;
32451;SDS011;45528;52.102;5.242;2023-04-03T01:45:18;3.3;;;1.3;;
32451;SDS011;45528;52.102;5.242;2023-04-03T01:46:54;3.8;;;1.3;;
32451;SDS011;45528;52.102;5.242;2023-04-03T01:50:08;3.8;;;1.2;;
32451;SDS011;45528;52.102;5.242;2023-04-03T01:51:45;3.3;;;1.4;;
32451;SDS011;45528;52.102;5.242;2023-04-03T01:53:21;3.9;;;1.3;;
32451;SDS011;45528;52.102;5.242;2023-04-03T01:56:34;3.7;;;1.4;;
32451;SDS011;45528;52.102;5.242;2023-04-03T01:58:10;4.5;;;1.3;;
32451;SDS011;45528;52.102;5.242;2023-04-03T01:59:46;6.1;;;1.5;;
32451;SDS011;45528;52.102;5.242;2023-04-03T02:01:23;4.91;;;1.5;;
32451;SDS011;45528;52.102;5.242;2023-04-03T02:04:38;4.61;;;1.4;;
32451;SDS011;45528;52.102;5.242;2023-04-03T02:06:15;4.5;;;1.6;;
32451;SDS011;45528;52.102;5.242;2023-04-03T02:07:51;4.3;;;1.3;;
32451;SDS011;45528;52.102;5.242;2023-04-03T02:11:04;4.1;;;1.3;;
32451;SDS011;45528;52.102;5.242;2023-04-03T02:12:40;4.0;;;1.2;;
32451;SDS011;45528;52.102;5.242;2023-04-03T02:14:16;5.7;;;1.4;;
32451;SDS011;45528;52.102;5.242;2023-04-03T02:17:28;5.0;;;1.5;;
32451;SDS011;45528;52.102;5.242;2023-04-03T02:19:04;5.3;;;1.5;;
32451;SDS011;45528;52.102;5.242;2023-04-03T02:20:41;4.41;;;1.4;;
32451;SDS011;45528;52.102;5.242;2023-04-03T02:22:17;3.5;;;1.4;;
32451;SDS011;45528;52.102;5.242;2023-04-03T02:25:30;5.11;;;1.4;;
32451;SDS011;45528;52.102;5.242;2023-04-03T02:27:07;3.5;;;1.5;;
32451;SDS011;45528;52.102;5.242;2023-04-03T02:28:44;3.0;;;1.4;;
32451;SDS011;45528;52.102;5.242;2023-04-03T02:31:56;3.8;;;1.4;;
32451;SDS011;45528;52.102;5.242;2023-04-03T02:33:32;5.11;;;1.4;;
32451;SDS011;45528;52.102;5.242;2023-04-03T02:35:10;5.11;;;1.6;;
32451;SDS011;45528;52.102;5.242;2023-04-03T02:38:23;5.7;;;1.8;;
32451;SDS011;45528;52.102;5.242;2023-04-03T02:40:00;5.0;;;1.5;;
32451;SDS011;45528;52.102;5.242;2023-04-03T02:41:36;4.0;;;1.6;;
32451;SDS011;45528;52.102;5.242;2023-04-03T02:43:13;5.3;;;1.6;;
32451;SDS011;45528;52.102;5.242;2023-04-03T02:46:25;3.8;;;1.6;;
32451;SDS011;45528;52.102;5.242;2023-04-03T02:48:01;4.91;;;1.8;;
32451;SDS011;45528;52.102;5.242;2023-04-03T02:49:37;5.6;;;1.7;;
32451;SDS011;45528;52.102;5.242;2023-04-03T02:52:50;2.8;;;1.3;;
32451;SDS011;45528;52.102;5.242;2023-04-03T02:54:26;3.8;;;1.7;;
32451;SDS011;45528;52.102;5.242;2023-04-03T02:56:02;3.7;;;1.6;;
32451;SDS011;45528;52.102;5.242;2023-04-03T02:59:14;5.6;;;1.8;;
32451;SDS011;45528;52.102;5.242;2023-04-03T03:00:52;4.1;;;1.8;;
32451;SDS011;45528;52.102;5.242;2023-04-03T03:02:28;5.0;;;1.7;;
32451;SDS011;45528;52.102;5.242;2023-04-03T03:04:04;3.3;;;1.6;;
32451;SDS011;45528;52.102;5.242;2023-04-03T03:07:16;6.3;;;1.7;;
32451;SDS011;45528;52.102;5.242;2023-04-03T03:08:53;6.3;;;1.8;;
32451;SDS011;45528;52.102;5.242;2023-04-03T03:10:29;3.7;;;1.7;;
32451;SDS011;45528;52.102;5.242;2023-04-03T03:13:41;4.5;;;1.8;;
32451;SDS011;45528;52.102;5.242;2023-04-03T03:15:18;5.8;;;1.8;;
32451;SDS011;45528;52.102;5.242;2023-04-03T03:16:54;6.8;;;1.9;;
32451;SDS011;45528;52.102;5.242;2023-04-03T03:20:07;4.41;;;1.6;;
32451;SDS011;45528;52.102;5.242;2023-04-03T03:21:43;5.8;;;1.9;;
32451;SDS011;45528;52.102;5.242;2023-04-03T03:23:20;3.1;;;1.5;;
32451;SDS011;45528;52.102;5.242;2023-04-03T03:25:00;4.0;;;1.6;;
32451;SDS011;45528;52.102;5.242;2023-04-03T03:28:13;4.61;;;1.8;;
32451;SDS011;45528;52.102;5.242;2023-04-03T03:29:49;6.1;;;1.9;;
32451;SDS011;45528;52.102;5.242;2023-04-03T03:31:25;3.4;;;1.6;;
32451;SDS011;45528;52.102;5.242;2023-04-03T03:34:39;3.7;;;1.6;;
32451;SDS011;45528;52.102;5.242;2023-04-03T03:36:15;4.41;;;1.7;;
32451;SDS011;45528;52.102;5.242;2023-04-03T03:37:51;5.9;;;1.8;;
32451;SDS011;45528;52.102;5.242;2023-04-03T03:41:04;4.2;;;1.8;;
32451;SDS011;45528;52.102;5.242;2023-04-03T03:42:40;5.3;;;1.7;;
32451;SDS011;45528;52.102;5.242;2023-04-03T03:44:16;4.2;;;1.6;;
32451;SDS011;45528;52.102;5.242;2023-04-03T03:47:29;4.1;;;1.7;;
32451;SDS011;45528;52.102;5.242;2023-04-03T03:49:06;5.4;;;2.1;;
32451;SDS011;45528;52.102;5.242;2023-04-03T03:50:42;6.2;;;1.9;;
32451;SDS011;45528;52.102;5.242;2023-04-03T03:52:18;6.0;;;1.7;;
32451;SDS011;45528;52.102;5.242;2023-04-03T03:55:30;4.2;;;1.7;;
32451;SDS011;45528;52.102;5.242;2023-04-03T03:57:07;5.0;;;1.8;;
32451;SDS011;45528;52.102;5.242;2023-04-03T03:58:44;5.3;;;1.9;;
32451;SDS011;45528;52.102;5.242;2023-04-03T04:01:56;7.2;;;2.0;;
32451;SDS011;45528;52.102;5.242;2023-04-03T04:03:32;5.5;;;2.0;;
32451;SDS011;45528;52.102;5.242;2023-04-03T04:05:09;5.4;;;2.0;;
32451;SDS011;45528;52.102;5.242;2023-04-03T04:08:21;3.8;;;2.0;;
32451;SDS011;45528;52.102;5.242;2023-04-03T04:09:57;5.5;;;2.0;;
32451;SDS011;45528;52.102;5.242;2023-04-03T04:11:34;5.9;;;2.4;;
32451;SDS011;45528;52.102;5.242;2023-04-03T04:13:10;7.4;;;2.21;;
32451;SDS011;45528;52.102;5.242;2023-04-03T04:16:22;8.9;;;2.4;;
32451;SDS011;45528;52.102;5.242;2023-04-03T04:17:58;6.8;;;2.21;;
32451;SDS011;45528;52.102;5.242;2023-04-03T04:19:35;5.6;;;2.21;;
32451;SDS011;45528;52.102;5.242;2023-04-03T04:22:47;5.5;;;1.9;;
32451;SDS011;45528;52.102;5.242;2023-04-03T04:24:23;4.1;;;2.1;;
32451;SDS011;45528;52.102;5.242;2023-04-03T04:25:59;5.6;;;2.21;;
32451;SDS011;45528;52.102;5.242;2023-04-03T04:29:13;6.1;;;2.0;;
32451;SDS011;45528;52.102;5.242;2023-04-03T04:30:49;7.8;;;2.4;;
32451;SDS011;45528;52.102;5.242;2023-04-03T04:32:25;4.8;;;2.0;;
32451;SDS011;45528;52.102;5.242;2023-04-03T04:35:38;6.2;;;1.9;;
32451;SDS011;45528;52.102;5.242;2023-04-03T04:37:14;5.11;;;1.8;;
32451;SDS011;45528;52.102;5.242;2023-04-03T04:38:50;7.9;;;2.5;;
32451;SDS011;45528;52.102;5.242;2023-04-03T04:40:27;8.9;;;2.4;;
32451;SDS011;45528;52.102;5.242;2023-04-03T04:43:40;7.2;;;2.4;;
32451;SDS011;45528;52.102;5.242;2023-04-03T04:45:16;4.61;;;1.9;;
32451;SDS011;45528;52.102;5.242;2023-04-03T04:46:52;5.9;;;2.1;;
32451;SDS011;45528;52.102;5.242;2023-04-03T04:50:05;7.7;;;2.31;;
32451;SDS011;45528;52.102;5.242;2023-04-03T04:51:42;6.7;;;2.31;;
32451;SDS011;45528;52.102;5.242;2023-04-03T04:53:18;7.3;;;2.7;;
32451;SDS011;45528;52.102;5.242;2023-04-03T04:56:30;6.9;;;2.31;;
32451;SDS011;45528;52.102;5.242;2023-04-03T04:58:06;4.41;;;2.31;;
32451;SDS011;45528;52.102;5.242;2023-04-03T04:59:43;7.1;;;2.4;;
32451;SDS011;45528;52.102;5.242;2023-04-03T05:01:19;5.4;;;2.5;;
32451;SDS011;45528;52.102;5.242;2023-04-03T05:04:31;5.7;;;2.4;;
32451;SDS011;45528;52.102;5.242;2023-04-03T05:06:08;6.0;;;2.5;;
32451;SDS011;45528;52.102;5.242;2023-04-03T05:07:44;6.4;;;2.5;;
32451;SDS011;45528;52.102;5.242;2023-04-03T05:10:56;6.1;;;2.5;;
32451;SDS011;45528;52.102;5.242;2023-04-03T05:12:32;8.9;;;2.5;;
32451;SDS011;45528;52.102;5.242;2023-04-03T05:14:09;6.4;;;2.6;;
32451;SDS011;45528;52.102;5.242;2023-04-03T05:17:22;6.4;;;2.4;;
32451;SDS011;45528;52.102;5.242;2023-04-03T05:18:58;8.31;;;2.31;;
32451;SDS011;45528;52.102;5.242;2023-04-03T05:20:34;9.71;;;2.6;;
32451;SDS011;45528;52.102;5.242;2023-04-03T05:22:11;10.3;;;2.8;;
32451;SDS011;45528;52.102;5.242;2023-04-03T05:25:23;7.6;;;2.5;;
32451;SDS011;45528;52.102;5.242;2023-04-03T05:26:59;5.9;;;2.8;;
32451;SDS011;45528;52.102;5.242;2023-04-03T05:28:35;4.2;;;2.21;;
32451;SDS011;45528;52.102;5.242;2023-04-03T05:31:49;5.4;;;2.21;;
32451;SDS011;45528;52.102;5.242;2023-04-03T05:33:26;7.1;;;2.8;;
32451;SDS011;45528;52.102;5.242;2023-04-03T05:35:02;7.3;;;2.6;;
32451;SDS011;45528;52.102;5.242;2023-04-03T05:38:15;10.9;;;3.2;;
32451;SDS011;45528;52.102;5.242;2023-04-03T05:39:52;6.3;;;2.5;;
32451;SDS011;45528;52.102;5.242;2023-04-03T05:41:28;8.1;;;2.4;;
32451;SDS011;45528;52.102;5.242;2023-04-03T05:44:40;5.5;;;2.4;;
32451;SDS011;45528;52.102;5.242;2023-04-03T05:46:17;7.5;;;2.8;;
32451;SDS011;45528;52.102;5.242;2023-04-03T05:47:55;8.31;;;2.31;;
32451;SDS011;45528;52.102;5.242;2023-04-03T05:49:31;8.1;;;2.7;;
32451;SDS011;45528;52.102;5.242;2023-04-03T05:52:50;7.1;;;2.5;;
32451;SDS011;45528;52.102;5.242;2023-04-03T05:54:31;8.31;;;2.9;;
32451;SDS011;45528;52.102;5.242;2023-04-03T05:56:07;9.0;;;2.8;;
32451;SDS011;45528;52.102;5.242;2023-04-03T05:59:19;7.5;;;2.6;;
32451;SDS011;45528;52.102;5.242;2023-04-03T06:00:56;7.1;;;2.9;;
32451;SDS011;45528;52.102;5.242;2023-04-03T06:02:33;8.2;;;2.6;;
32451;SDS011;45528;52.102;5.242;2023-04-03T06:04:09;8.4;;;2.7;;
32451;SDS011;45528;52.102;5.242;2023-04-03T06:07:22;6.8;;;2.6;;
32451;SDS011;45528;52.102;5.242;2023-04-03T06:09:00;6.8;;;2.7;;
32451;SDS011;45528;52.102;5.242;2023-04-03T06:10:37;7.8;;;2.8;;
32451;SDS011;45528;52.102;5.242;2023-04-03T06:13:49;8.1;;;2.8;;
32451;SDS011;45528;52.102;5.242;2023-04-03T06:15:26;7.2;;;2.6;;
32451;SDS011;45528;52.102;5.242;2023-04-03T06:17:02;6.1;;;2.4;;
32451;SDS011;45528;52.102;5.242;2023-04-03T06:25:13;10.5;;;2.5;;
32451;SDS011;45528;52.102;5.242;2023-04-03T06:28:26;7.0;;;2.4;;
32451;SDS011;45528;52.102;5.242;2023-04-03T06:30:02;6.8;;;2.21;;
32451;SDS011;45528;52.102;5.242;2023-04-03T06:31:38;7.8;;;2.1;;
32451;SDS011;45528;52.102;5.242;2023-04-03T06:34:50;7.9;;;2.0;;
32451;SDS011;45528;52.102;5.242;2023-04-03T06:36:26;5.2;;;1.9;;
32451;SDS011;45528;52.102;5.242;2023-04-03T06:38:02;5.3;;;1.9;;
32451;SDS011;45528;52.102;5.242;2023-04-03T06:39:38;6.1;;;2.1;;
32451;SDS011;45528;52.102;5.242;2023-04-03T06:42:52;9.6;;;2.31;;
32451;SDS011;45528;52.102;5.242;2023-04-03T06:44:28;7.5;;;2.31;;
32451;SDS011;45528;52.102;5.242;2023-04-03T06:46:04;6.3;;;2.1;;
32451;SDS011;45528;52.102;5.242;2023-04-03T06:49:16;8.1;;;2.4;;
32451;SDS011;45528;52.102;5.242;2023-04-03T06:50:52;9.5;;;2.5;;
32451;SDS011;45528;52.102;5.242;2023-04-03T06:52:29;7.6;;;2.0;;
32451;SDS011;45528;52.102;5.242;2023-04-03T06:55:42;8.31;;;2.21;;
32451;SDS011;45528;52.102;5.242;2023-04-03T06:57:18;6.7;;;2.1;;
32451;SDS011;45528;52.102;5.242;2023-04-03T06:58:55;5.6;;;2.21;;
32451;SDS011;45528;52.102;5.242;2023-04-03T07:00:31;9.9;;;2.5;;
32451;SDS011;45528;52.102;5.242;2023-04-03T07:03:47;5.2;;;1.8;;
32451;SDS011;45528;52.102;5.242;2023-04-03T07:05:24;8.2;;;2.4;;
32451;SDS011;45528;52.102;5.242;2023-04-03T07:07:01;7.5;;;2.1;;
32451;SDS011;45528;52.102;5.242;2023-04-03T07:10:14;4.8;;;2.1;;
32451;SDS011;45528;52.102;5.242;2023-04-03T07:11:50;6.3;;;1.7;;
32451;SDS011;45528;52.102;5.242;2023-04-03T07:13:26;5.5;;;1.9;;
32451;SDS011;45528;52.102;5.242;2023-04-03T07:16:40;8.0;;;2.31;;
32451;SDS011;45528;52.102;5.242;2023-04-03T07:18:16;6.9;;;2.0;;
32451;SDS011;45528;52.102;5.242;2023-04-03T07:19:52;6.3;;;2.0;;
32451;SDS011;45528;52.102;5.242;2023-04-03T07:21:29;5.8;;;2.0;;
32451;SDS011;45528;52.102;5.242;2023-04-03T07:24:41;4.61;;;1.8;;
32451;SDS011;45528;52.102;5.242;2023-04-03T07:26:18;4.5;;;2.1;;
32451;SDS011;45528;52.102;5.242;2023-04-03T07:27:54;5.4;;;2.21;;
32451;SDS011;45528;52.102;5.242;2023-04-03T07:31:08;4.8;;;1.8;;
32451;SDS011;45528;52.102;5.242;2023-04-03T07:32:47;10.4;;;2.1;;
32451;SDS011;45528;52.102;5.242;2023-04-03T07:34:23;8.1;;;1.9;;
32451;SDS011;45528;52.102;5.242;2023-04-03T07:37:36;5.8;;;2.0;;
32451;SDS011;45528;52.102;5.242;2023-04-03T07:39:13;6.7;;;2.21;;
32451;SDS011;45528;52.102;5.242;2023-04-03T07:40:50;8.0;;;2.0;;
32451;SDS011;45528;52.102;5.242;2023-04-03T07:42:26;4.41;;;2.0;;
32451;SDS011;45528;52.102;5.242;2023-04-03T07:45:40;9.4;;;2.0;;
32451;SDS011;45528;52.102;5.242;2023-04-03T07:47:18;4.8;;;1.7;;
32451;SDS011;45528;52.102;5.242;2023-04-03T07:48:54;6.8;;;1.6;;
32451;SDS011;45528;52.102;5.242;2023-04-03T07:52:07;6.2;;;1.7;;
32451;SDS011;45528;52.102;5.242;2023-04-03T07:53:43;4.91;;;1.8;;
32451;SDS011;45528;52.102;5.242;2023-04-03T07:55:19;7.6;;;1.8;;
32451;SDS011;45528;52.102;5.242;2023-04-03T07:58:31;5.7;;;1.7;;
32451;SDS011;45528;52.102;5.242;2023-04-03T08:00:08;5.2;;;1.4;;
32451;SDS011;45528;52.102;5.242;2023-04-03T08:01:44;5.0;;;1.8;;
32451;SDS011;45528;52.102;5.242;2023-04-03T08:03:20;8.2;;;1.7;;
32451;SDS011;45528;52.102;5.242;2023-04-03T08:06:33;5.5;;;2.0;;
32451;SDS011;45528;52.102;5.242;2023-04-03T08:08:09;5.5;;;2.0;;
32451;SDS011;45528;52.102;5.242;2023-04-03T08:09:47;5.9;;;1.9;;
32451;SDS011;45528;52.102;5.242;2023-04-03T08:12:59;5.0;;;1.5;;
32451;SDS011;45528;52.102;5.242;2023-04-03T08:14:36;8.2;;;1.7;;
32451;SDS011;45528;52.102;5.242;2023-04-03T08:16:14;6.4;;;1.6;;
32451;SDS011;45528;52.102;5.242;2023-04-03T08:19:30;5.5;;;1.6;;
32451;SDS011;45528;52.102;5.242;2023-04-03T08:21:07;5.7;;;1.5;;
32451;SDS011;45528;52.102;5.242;2023-04-03T08:22:44;5.11;;;1.5;;
32451;SDS011;45528;52.102;5.242;2023-04-03T08:24:20;7.9;;;1.6;;
32451;SDS011;45528;52.102;5.242;2023-04-03T08:27:32;6.3;;;1.6;;
32451;SDS011;45528;52.102;5.242;2023-04-03T08:29:09;4.2;;;1.3;;
32451;SDS011;45528;52.102;5.242;2023-04-03T08:30:45;6.3;;;1.3;;
32451;SDS011;45528;52.102;5.242;2023-04-03T08:33:58;4.7;;;1.3;;
32451;SDS011;45528;52.102;5.242;2023-04-03T08:35:37;6.9;;;1.5;;
32451;SDS011;45528;52.102;5.242;2023-04-03T08:37:14;7.2;;;1.3;;
32451;SDS011;45528;52.102;5.242;2023-04-03T08:40:28;6.1;;;1.3;;
32451;SDS011;45528;52.102;5.242;2023-04-03T08:42:05;4.1;;;1.3;;
32451;SDS011;45528;52.102;5.242;2023-04-03T08:43:55;3.6;;;1.2;;
32451;SDS011;45528;52.102;5.242;2023-04-03T08:45:42;6.0;;;1.4;;
32451;SDS011;45528;52.102;5.242;2023-04-03T08:47:23;4.0;;;1.2;;
32451;SDS011;45528;52.102;5.242;2023-04-03T08:50:50;4.61;;;1.4;;
32451;SDS011;45528;52.102;5.242;2023-04-03T08:52:31;6.0;;;1.3;;
32451;SDS011;45528;52.102;5.242;2023-04-03T08:54:14;4.8;;;1.2;;
32451;SDS011;45528;52.102;5.242;2023-04-03T08:56:00;3.6;;;1.0;;
32451;SDS011;45528;52.102;5.242;2023-04-03T08:57:44;2.6;;;1.11;;
32451;SDS011;45528;52.102;5.242;2023-04-03T09:01:05;3.6;;;1.11;;
32451;SDS011;45528;52.102;5.242;2023-04-03T09:02:52;2.6;;;1.11;;
32451;SDS011;45528;52.102;5.242;2023-04-03T09:04:31;5.11;;;1.2;;
32451;SDS011;45528;52.102;5.242;2023-04-03T09:06:10;2.7;;;1.0;;
32451;SDS011;45528;52.102;5.242;2023-04-03T09:09:36;5.11;;;1.0;;
32451;SDS011;45528;52.102;5.242;2023-04-03T09:11:19;1.8;;;0.9;;
32451;SDS011;45528;52.102;5.242;2023-04-03T09:13:01;4.61;;;1.0;;
32451;SDS011;45528;52.102;5.242;2023-04-03T09:14:46;3.4;;;0.9;;
32451;SDS011;45528;52.102;5.242;2023-04-03T09:16:35;3.2;;;0.9;;
32451;SDS011;45528;52.102;5.242;2023-04-03T09:20:10;2.9;;;0.9;;
32451;SDS011;45528;52.102;5.242;2023-04-03T09:21:56;2.8;;;0.9;;
32451;SDS011;45528;52.102;5.242;2023-04-03T09:23:33;1.4;;;0.8;;
32451;SDS011;45528;52.102;5.242;2023-04-03T09:25:18;4.3;;;1.11;;
32451;SDS011;45528;52.102;5.242;2023-04-03T09:28:39;5.3;;;1.0;;
32451;SDS011;45528;52.102;5.242;2023-04-03T09:30:18;3.6;;;0.7;;
32451;SDS011;45528;52.102;5.242;2023-04-03T09:31:58;2.9;;;0.8;;
32451;SDS011;45528;52.102;5.242;2023-04-03T09:33:36;2.6;;;0.6;;
32451;SDS011;45528;52.102;5.242;2023-04-03T09:36:57;4.3;;;0.7;;
32451;SDS011;45528;52.102;5.242;2023-04-03T09:38:34;2.8;;;0.7;;
32451;SDS011;45528;52.102;5.242;2023-04-03T09:40:29;2.31;;;0.7;;
32451;SDS011;45528;52.102;5.242;2023-04-03T09:42:21;3.1;;;0.8;;
32451;SDS011;45528;52.102;5.242;2023-04-03T09:43:59;1.8;;;0.6;;
32451;SDS011;45528;52.102;5.242;2023-04-03T09:47:19;1.6;;;0.7;;
32451;SDS011;45528;52.102;5.242;2023-04-03T09:49:01;1.5;;;0.8;;
32451;SDS011;45528;52.102;5.242;2023-04-03T09:50:52;2.4;;;0.6;;
32451;SDS011;45528;52.102;5.242;2023-04-03T09:52:33;3.0;;;0.7;;
32451;SDS011;45528;52.102;5.242;2023-04-03T09:56:18;1.7;;;0.4;;
32451;SDS011;45528;52.102;5.242;2023-04-03T09:57:59;1.7;;;0.7;;
32451;SDS011;45528;52.102;5.242;2023-04-03T09:59:39;3.5;;;0.8;;
32451;SDS011;45528;52.102;5.242;2023-04-03T10:01:22;1.11;;;0.5;;
32451;SDS011;45528;52.102;5.242;2023-04-03T10:03:03;2.0;;;0.6;;
32451;SDS011;45528;52.102;5.242;2023-04-03T10:04:41;1.8;;;0.6;;
32451;SDS011;45528;52.102;5.242;2023-04-03T10:08:20;3.2;;;0.7;;
32451;SDS011;45528;52.102;5.242;2023-04-03T10:09:59;3.0;;;0.8;;
32451;SDS011;45528;52.102;5.242;2023-04-03T10:11:38;1.0;;;0.5;;
32451;SDS011;45528;52.102;5.242;2023-04-03T10:13:33;1.3;;;0.6;;
32451;SDS011;45528;52.102;5.242;2023-04-03T10:15:11;1.6;;;0.6;;
32451;SDS011;45528;52.102;5.242;2023-04-03T10:18:37;2.0;;;0.6;;
32451;SDS011;45528;52.102;5.242;2023-04-03T10:20:25;1.6;;;0.6;;
32451;SDS011;45528;52.102;5.242;2023-04-03T10:22:15;3.1;;;0.6;;
32451;SDS011;45528;52.102;5.242;2023-04-03T10:23:57;1.7;;;0.6;;
32451;SDS011;45528;52.102;5.242;2023-04-03T10:25:46;0.5;;;0.5;;
32451;SDS011;45528;52.102;5.242;2023-04-03T10:29:21;1.5;;;0.5;;
32451;SDS011;45528;52.102;5.242;2023-04-03T10:31:14;1.3;;;0.5;;
32451;SDS011;45528;52.102;5.242;2023-04-03T10:33:01;1.0;;;0.5;;
32451;SDS011;45528;52.102;5.242;2023-04-03T10:34:53;1.4;;;0.4;;
32451;SDS011;45528;52.102;5.242;2023-04-03T10:36:38;1.5;;;0.5;;
32451;SDS011;45528;52.102;5.242;2023-04-03T10:38:23;1.9;;;0.4;;
32451;SDS011;45528;52.102;5.242;2023-04-03T10:40:15;2.0;;;0.5;;
32451;SDS011;45528;52.102;5.242;2023-04-03T10:43:53;2.5;;;0.6;;
32451;SDS011;45528;52.102;5.242;2023-04-03T10:45:47;1.4;;;0.5;;
32451;SDS011;45528;52.102;5.242;2023-04-03T10:47:34;3.3;;;0.6;;
32451;SDS011;45528;52.102;5.242;2023-04-03T10:49:24;1.2;;;0.4;;
32451;SDS011;45528;52.102;5.242;2023-04-03T10:51:13;1.3;;;0.5;;
32451;SDS011;45528;52.102;5.242;2023-04-03T10:53:01;2.0;;;0.4;;
32451;SDS011;45528;52.102;5.242;2023-04-03T10:56:31;1.4;;;0.5;;
32451;SDS011;45528;52.102;5.242;2023-04-03T10:58:16;1.7;;;0.5;;
32451;SDS011;45528;52.102;5.242;2023-04-03T11:00:00;2.0;;;0.5;;
32451;SDS011;45528;52.102;5.242;2023-04-03T11:01:41;1.6;;;0.6;;
32451;SDS011;45528;52.102;5.242;2023-04-03T11:03:24;1.0;;;0.4;;
32451;SDS011;45528;52.102;5.242;2023-04-03T11:06:56;1.6;;;0.4;;
32451;SDS011;45528;52.102;5.242;2023-04-03T11:08:38;1.6;;;0.4;;
32451;SDS011;45528;52.102;5.242;2023-04-03T11:10:21;1.4;;;0.5;;
32451;SDS011;45528;52.102;5.242;2023-04-03T11:12:02;1.0;;;0.3;;
32451;SDS011;45528;52.102;5.242;2023-04-03T11:13:49;1.0;;;0.4;;
32451;SDS011;45528;52.102;5.242;2023-04-03T11:17:11;2.4;;;0.4;;
32451;SDS011;45528;52.102;5.242;2023-04-03T11:19:01;0.9;;;0.5;;
32451;SDS011;45528;52.102;5.242;2023-04-03T11:20:53;1.4;;;0.5;;
32451;SDS011;45528;52.102;5.242;2023-04-03T11:22:37;1.3;;;0.5;;
32451;SDS011;45528;52.102;5.242;2023-04-03T11:24:20;1.9;;;0.4;;
32451;SDS011;45528;52.102;5.242;2023-04-03T11:27:48;2.0;;;0.5;;
32451;SDS011;45528;52.102;5.242;2023-04-03T11:29:31;1.6;;;0.5;;
32451;SDS011;45528;52.102;5.242;2023-04-03T11:31:22;2.0;;;0.7;;
32451;SDS011;45528;52.102;5.242;2023-04-03T11:33:13;1.3;;;0.5;;
32451;SDS011;45528;52.102;5.242;2023-04-03T11:35:13;2.8;;;0.6;;
32451;SDS011;45528;52.102;5.242;2023-04-03T11:36:51;1.8;;;0.6;;
32451;SDS011;45528;52.102;5.242;2023-04-03T11:40:18;1.2;;;0.6;;
32451;SDS011;45528;52.102;5.242;2023-04-03T11:42:13;2.6;;;0.7;;
32451;SDS011;45528;52.102;5.242;2023-04-03T11:44:05;1.4;;;0.6;;
32451;SDS011;45528;52.102;5.242;2023-04-03T11:46:09;2.21;;;0.5;;
32451;SDS011;45528;52.102;5.242;2023-04-03T11:47:46;1.3;;;0.6;;
32451;SDS011;45528;52.102;5.242;2023-04-03T11:49:59;1.3;;;0.6;;
32451;SDS011;45528;52.102;5.242;2023-04-03T11:51:39;2.0;;;0.6;;
32451;SDS011;45528;52.102;5.242;2023-04-03T11:55:51;1.6;;;0.6;;
32451;SDS011;45528;52.102;5.242;2023-04-03T11:58:12;1.6;;;0.8;;
32451;SDS011;45528;52.102;5.242;2023-04-03T11:59:51;3.5;;;0.7;;
32451;SDS011;45528;52.102;5.242;2023-04-03T12:03:29;1.2;;;0.5;;
32451;SDS011;45528;52.102;5.242;2023-04-03T12:06:42;2.4;;;0.8;;
32451;SDS011;45528;52.102;5.242;2023-04-03T12:08:46;4.91;;;0.7;;
32451;SDS011;45528;52.102;5.242;2023-04-03T12:10:26;1.8;;;0.7;;
32451;SDS011;45528;52.102;5.242;2023-04-03T12:14:04;3.8;;;0.7;;
32451;SDS011;45528;52.102;5.242;2023-04-03T12:15:51;2.9;;;0.7;;
32451;SDS011;45528;52.102;5.242;2023-04-03T12:17:29;2.9;;;0.7;;
32451;SDS011;45528;52.102;5.242;2023-04-03T12:19:24;2.0;;;0.8;;
32451;SDS011;45528;52.102;5.242;2023-04-03T12:21:10;2.5;;;0.7;;
32451;SDS011;45528;52.102;5.242;2023-04-03T12:23:06;2.8;;;0.8;;
32451;SDS011;45528;52.102;5.242;2023-04-03T12:26:22;4.2;;;0.7;;
32451;SDS011;45528;52.102;5.242;2023-04-03T12:28:04;2.1;;;0.6;;
32451;SDS011;45528;52.102;5.242;2023-04-03T12:29:43;3.4;;;0.7;;
32451;SDS011;45528;52.102;5.242;2023-04-03T12:31:31;2.4;;;0.7;;
32451;SDS011;45528;52.102;5.242;2023-04-03T12:33:23;2.0;;;0.7;;
32451;SDS011;45528;52.102;5.242;2023-04-03T12:37:01;3.3;;;0.8;;
32451;SDS011;45528;52.102;5.242;2023-04-03T12:38:53;3.4;;;0.7;;
32451;SDS011;45528;52.102;5.242;2023-04-03T12:40:43;1.9;;;0.6;;
32451;SDS011;45528;52.102;5.242;2023-04-03T12:42:32;2.21;;;0.8;;
32451;SDS011;45528;52.102;5.242;2023-04-03T12:44:31;2.0;;;0.8;;
32451;SDS011;45528;52.102;5.242;2023-04-03T12:46:17;4.1;;;0.7;;
32451;SDS011;45528;52.102;5.242;2023-04-03T12:47:55;2.8;;;0.8;;
32451;SDS011;45528;52.102;5.242;2023-04-03T12:51:14;2.21;;;0.8;;
32451;SDS011;45528;52.102;5.242;2023-04-03T12:52:56;4.1;;;0.8;;
32451;SDS011;45528;52.102;5.242;2023-04-03T12:54:36;2.31;;;0.8;;
32451;SDS011;45528;52.102;5.242;2023-04-03T12:56:19;1.6;;;0.8;;
32451;SDS011;45528;52.102;5.242;2023-04-03T12:59:49;2.5;;;0.8;;
32451;SDS011;45528;52.102;5.242;2023-04-03T13:01:26;1.8;;;0.7;;
32451;SDS011;45528;52.102;5.242;2023-04-03T13:03:02;2.4;;;0.9;;
32451;SDS011;45528;52.102;5.242;2023-04-03T13:04:40;2.4;;;0.8;;
32451;SDS011;45528;52.102;5.242;2023-04-03T13:07:58;2.5;;;0.7;;
32451;SDS011;45528;52.102;5.242;2023-04-03T13:09:37;3.4;;;0.7;;
32451;SDS011;45528;52.102;5.242;2023-04-03T13:11:13;2.1;;;0.9;;